createdAt,value
2018-10-07T00:01:11.625Z,15.94
2018-10-07T00:03:39.070Z,15.95
2018-10-07T00:06:06.547Z,15.96
2018-10-07T00:08:36.238Z,15.99
2018-10-07T00:11:03.792Z,16.03
2018-10-07T00:13:31.278Z,15.93
2018-10-07T00:15:58.739Z,15.88
2018-10-07T00:18:26.233Z,15.87
2018-10-07T00:20:53.651Z,15.75
2018-10-07T00:23:21.377Z,15.78
2018-10-07T00:25:48.809Z,15.72
2018-10-07T00:28:16.159Z,15.76
2018-10-07T00:30:43.643Z,15.77
2018-10-07T00:33:11.259Z,15.74
2018-10-07T00:38:31.503Z,15.81
2018-10-07T00:40:58.862Z,15.80
2018-10-07T00:43:26.184Z,15.76
2018-10-07T00:45:53.571Z,15.72
2018-10-07T00:48:20.897Z,15.66
2018-10-07T00:50:48.199Z,15.64
2018-10-07T00:53:15.602Z,15.63
2018-10-07T00:55:42.902Z,15.57
2018-10-07T00:58:10.441Z,15.54
2018-10-07T01:00:37.847Z,15.51
2018-10-07T01:03:05.328Z,15.51
2018-10-07T01:05:32.870Z,15.48
2018-10-07T01:08:00.228Z,15.47
2018-10-07T01:10:27.563Z,15.36
2018-10-07T01:12:54.992Z,15.40
2018-10-07T01:15:22.492Z,15.34
2018-10-07T01:17:49.836Z,15.28
2018-10-07T01:20:17.199Z,15.32
2018-10-07T01:22:44.491Z,15.25
2018-10-07T01:25:11.859Z,15.26
2018-10-07T01:27:39.167Z,15.26
2018-10-07T01:30:07.402Z,15.23
2018-10-07T01:32:34.691Z,15.25
2018-10-07T01:35:01.915Z,15.31
2018-10-07T01:37:29.162Z,15.20
2018-10-07T01:39:56.464Z,15.14
2018-10-07T01:42:23.733Z,15.10
2018-10-07T01:44:51.003Z,15.13
2018-10-07T01:47:18.242Z,15.12
2018-10-07T01:49:45.547Z,15.16
2018-10-07T01:52:12.828Z,15.15
2018-10-07T01:54:40.154Z,15.11
2018-10-07T01:57:07.493Z,15.05
2018-10-07T01:59:34.827Z,14.95
2018-10-07T02:02:02.891Z,14.90
2018-10-07T02:04:30.181Z,14.89
2018-10-07T02:06:57.517Z,14.94
2018-10-07T02:09:24.894Z,14.96
2018-10-07T02:11:52.164Z,14.80
2018-10-07T02:14:19.473Z,14.75
2018-10-07T02:16:46.827Z,14.79
2018-10-07T02:19:14.128Z,14.80
2018-10-07T02:21:41.556Z,14.81
2018-10-07T02:24:09.033Z,14.82
2018-10-07T02:26:36.474Z,14.77
2018-10-07T02:29:03.742Z,14.61
2018-10-07T02:31:31.034Z,14.57
2018-10-07T02:33:59.101Z,14.59
2018-10-07T02:36:26.448Z,14.55
2018-10-07T02:38:53.857Z,14.55
2018-10-07T02:41:21.197Z,14.59
2018-10-07T02:43:48.502Z,14.50
2018-10-07T02:46:15.699Z,14.45
2018-10-07T02:48:42.978Z,14.36
2018-10-07T02:51:10.795Z,14.32
2018-10-07T02:53:38.073Z,14.28
2018-10-07T02:56:05.702Z,14.30
2018-10-07T02:58:33.145Z,14.34
2018-10-07T03:01:00.432Z,14.23
2018-10-07T03:03:27.760Z,14.25
2018-10-07T03:05:55.076Z,14.03
2018-10-07T03:08:22.377Z,13.83
2018-10-07T03:10:49.665Z,13.90
2018-10-07T03:13:17.292Z,13.95
2018-10-07T03:15:44.568Z,13.97
2018-10-07T03:18:11.866Z,13.97
2018-10-07T03:20:39.139Z,13.93
2018-10-07T03:23:06.629Z,13.95
2018-10-07T03:25:33.957Z,14.03
2018-10-07T03:28:01.305Z,14.07
2018-10-07T03:30:28.624Z,14.11
2018-10-07T03:32:55.876Z,14.15
2018-10-07T03:35:23.122Z,14.07
2018-10-07T03:37:51.164Z,13.99
2018-10-07T03:40:18.420Z,13.86
2018-10-07T03:42:45.752Z,13.82
2018-10-07T03:45:13.095Z,13.81
2018-10-07T03:47:40.418Z,13.80
2018-10-07T03:50:07.696Z,13.90
2018-10-07T03:52:35.600Z,13.86
2018-10-07T03:55:02.852Z,13.89
2018-10-07T03:57:30.166Z,13.86
2018-10-07T03:59:57.569Z,13.83
2018-10-07T04:02:24.832Z,13.61
2018-10-07T04:04:52.319Z,13.58
2018-10-07T04:07:19.587Z,13.51
2018-10-07T04:09:46.891Z,13.50
2018-10-07T04:12:14.192Z,13.58
2018-10-07T04:14:41.532Z,13.50
2018-10-07T04:17:08.797Z,13.49
2018-10-07T04:19:36.139Z,13.40
2018-10-07T04:22:03.452Z,13.39
2018-10-07T04:24:32.157Z,13.38
2018-10-07T04:26:59.483Z,13.41
2018-10-07T04:29:27.122Z,13.48
2018-10-07T04:31:54.527Z,13.55
2018-10-07T04:34:21.903Z,13.47
2018-10-07T04:36:49.193Z,13.51
2018-10-07T04:39:16.602Z,13.39
2018-10-07T04:41:44.383Z,13.27
2018-10-07T04:44:11.692Z,13.20
2018-10-07T04:46:39.260Z,13.16
2018-10-07T04:49:07.476Z,13.05
2018-10-07T04:51:34.750Z,12.89
2018-10-07T04:54:02.508Z,12.89
2018-10-07T04:56:29.781Z,13.03
2018-10-07T04:58:57.091Z,13.01
2018-10-07T05:01:24.355Z,13.05
2018-10-07T05:03:51.742Z,13.05
2018-10-07T05:06:20.308Z,12.96
2018-10-07T05:08:47.850Z,12.87
2018-10-07T05:11:15.248Z,12.73
2018-10-07T05:13:47.490Z,12.61
2018-10-07T05:16:32.374Z,12.62
2018-10-07T05:19:00.211Z,12.62
2018-10-07T05:21:27.631Z,12.67
2018-10-07T05:23:55.393Z,12.69
2018-10-07T05:26:22.776Z,12.72
2018-10-07T05:28:50.080Z,12.67
2018-10-07T05:31:17.378Z,12.62
2018-10-07T05:33:44.819Z,12.46
2018-10-07T05:36:12.672Z,12.37
2018-10-07T05:38:40.027Z,12.33
2018-10-07T05:41:07.583Z,12.39
2018-10-07T05:43:34.892Z,12.34
2018-10-07T05:46:02.229Z,12.37
2018-10-07T05:48:29.527Z,12.37
2018-10-07T05:50:56.904Z,12.48
2018-10-07T05:53:24.238Z,12.54
2018-10-07T05:55:51.533Z,12.51
2018-10-07T05:58:18.929Z,12.56
2018-10-07T06:00:46.310Z,12.59
2018-10-07T06:03:18.469Z,12.67
2018-10-07T06:05:46.410Z,12.78
2018-10-07T06:08:15.338Z,12.84
2018-10-07T06:10:42.698Z,12.89
2018-10-07T06:13:10.054Z,12.96
2018-10-07T06:15:38.508Z,13.07
2018-10-07T06:18:06.082Z,13.05
2018-10-07T06:20:33.411Z,13.07
2018-10-07T06:23:00.839Z,13.17
2018-10-07T06:25:28.174Z,13.30
2018-10-07T06:27:55.927Z,13.33
2018-10-07T06:30:23.237Z,13.33
2018-10-07T06:32:50.834Z,13.32
2018-10-07T06:35:18.176Z,13.35
2018-10-07T06:37:45.521Z,13.37
2018-10-07T06:40:12.913Z,13.39
2018-10-07T06:42:40.258Z,13.70
2018-10-07T06:45:07.656Z,13.99
2018-10-07T06:47:34.968Z,14.32
2018-10-07T06:50:02.273Z,14.55
2018-10-07T06:52:29.634Z,15.14
2018-10-07T06:54:56.947Z,15.95
2018-10-07T06:57:24.224Z,16.37
2018-10-07T06:59:51.509Z,16.88
2018-10-07T07:02:18.890Z,17.43
2018-10-07T07:04:46.172Z,18.09
2018-10-07T07:07:13.473Z,18.86
2018-10-07T07:09:40.764Z,19.48
2018-10-07T07:12:08.065Z,20.15
2018-10-07T07:14:35.391Z,21.02
2018-10-07T07:17:02.701Z,21.60
2018-10-07T07:19:30.048Z,21.83
2018-10-07T07:21:57.303Z,21.90
2018-10-07T07:24:24.633Z,22.15
2018-10-07T07:26:53.396Z,22.01
2018-10-07T07:29:20.828Z,22.86
2018-10-07T07:31:48.200Z,23.47
2018-10-07T07:34:15.580Z,23.65
2018-10-07T07:36:42.892Z,23.78
2018-10-07T07:39:10.137Z,23.32
2018-10-07T07:41:37.523Z,23.80
2018-10-07T07:44:04.864Z,24.46
2018-10-07T07:46:32.136Z,24.92
2018-10-07T07:49:08.712Z,25.27
2018-10-07T07:51:36.455Z,25.57
2018-10-07T07:54:03.785Z,26.45
2018-10-07T07:56:31.113Z,26.82
2018-10-07T07:58:58.422Z,27.20
2018-10-07T08:01:25.889Z,27.63
2018-10-07T08:03:53.164Z,27.46
2018-10-07T08:06:20.486Z,27.79
2018-10-07T08:08:47.746Z,27.84
2018-10-07T08:11:15.021Z,27.88
2018-10-07T08:13:42.310Z,27.86
2018-10-07T08:16:09.605Z,27.75
2018-10-07T08:18:36.870Z,28.02
2018-10-07T08:21:04.162Z,28.22
2018-10-07T08:23:31.518Z,28.35
2018-10-07T08:25:58.767Z,27.78
2018-10-07T08:28:26.071Z,28.13
2018-10-07T08:30:53.362Z,28.43
2018-10-07T08:33:20.696Z,28.77
2018-10-07T08:35:48.045Z,28.46
2018-10-07T08:38:15.377Z,28.75
2018-10-07T08:40:42.652Z,29.01
2018-10-07T08:43:09.974Z,28.55
2018-10-07T08:45:37.298Z,28.14
2018-10-07T08:48:04.646Z,28.18
2018-10-07T08:50:31.914Z,29.01
2018-10-07T08:52:59.195Z,28.62
2018-10-07T08:55:26.576Z,28.25
2018-10-07T08:57:53.828Z,28.60
2018-10-07T09:00:21.117Z,29.31
2018-10-07T09:02:48.387Z,29.12
2018-10-07T09:05:15.650Z,28.80
2018-10-07T09:07:43.005Z,28.44
2018-10-07T09:10:10.288Z,28.95
2018-10-07T09:12:37.597Z,28.82
2018-10-07T09:15:04.997Z,29.24
2018-10-07T09:17:32.305Z,29.52
2018-10-07T09:19:59.539Z,28.00
2018-10-07T09:22:26.818Z,27.54
2018-10-07T09:24:54.370Z,27.56
2018-10-07T09:27:21.800Z,27.23
2018-10-07T09:29:49.138Z,26.66
2018-10-07T09:32:16.547Z,25.90
2018-10-07T09:34:43.852Z,25.12
2018-10-07T09:37:11.107Z,24.44
2018-10-07T09:39:38.424Z,24.22
2018-10-07T09:42:05.812Z,24.07
2018-10-07T09:44:33.134Z,24.16
2018-10-07T09:47:00.485Z,25.68
2018-10-07T09:49:27.786Z,27.10
2018-10-07T09:51:55.093Z,28.22
2018-10-07T09:54:22.372Z,28.82
2018-10-07T09:56:49.606Z,29.48
2018-10-07T09:59:16.889Z,30.03
2018-10-07T10:01:44.130Z,30.05
2018-10-07T10:04:11.559Z,30.18
2018-10-07T10:06:38.733Z,29.97
2018-10-07T10:09:07.160Z,30.26
2018-10-07T10:11:34.478Z,29.97
2018-10-07T10:14:01.786Z,30.21
2018-10-07T10:16:36.872Z,30.88
2018-10-07T10:19:05.283Z,31.58
2018-10-07T10:21:36.003Z,31.52
2018-10-07T10:24:40.928Z,30.94
2018-10-07T10:27:14.872Z,30.66
2018-10-07T10:29:47.867Z,31.07
2018-10-07T10:32:24.688Z,31.20
2018-10-07T10:35:03.900Z,31.03
2018-10-07T10:37:44.250Z,31.43
2018-10-07T10:40:25.423Z,31.05
2018-10-07T10:42:59.225Z,30.93
2018-10-07T10:45:37.951Z,30.82
2018-10-07T10:48:18.016Z,31.14
2018-10-07T10:50:50.327Z,31.15
2018-10-07T10:53:25.143Z,31.34
2018-10-07T10:55:58.918Z,31.09
2018-10-07T10:58:49.490Z,30.67
2018-10-07T11:01:56.259Z,30.30
2018-10-07T11:04:26.767Z,30.14
2018-10-07T11:07:03.646Z,29.96
2018-10-07T11:10:51.307Z,30.03
2018-10-07T11:13:26.746Z,30.09
2018-10-07T11:17:13.301Z,30.06
2018-10-07T11:19:48.131Z,28.98
2018-10-07T11:22:25.136Z,29.08
2018-10-07T11:27:06.544Z,28.78
2018-10-07T11:29:41.678Z,28.09
2018-10-07T11:32:52.408Z,28.61
2018-10-07T11:35:34.898Z,28.74
2018-10-07T11:38:14.394Z,28.63
2018-10-07T11:43:02.792Z,28.84
2018-10-07T11:45:35.850Z,29.03
2018-10-07T11:48:14.839Z,29.20
2018-10-07T11:50:58.640Z,29.22
2018-10-07T11:53:34.873Z,29.06
2018-10-07T11:56:02.166Z,29.18
2018-10-07T11:58:29.502Z,28.92
2018-10-07T12:07:58.571Z,28.13
2018-10-07T12:10:25.946Z,28.35
2018-10-07T12:12:53.214Z,28.81
2018-10-07T12:15:20.452Z,28.58
2018-10-07T12:17:47.762Z,28.50
2018-10-07T12:20:15.066Z,28.83
2018-10-07T12:22:42.390Z,29.28
2018-10-07T12:25:09.727Z,29.10
2018-10-07T12:27:36.987Z,28.61
2018-10-07T12:30:04.600Z,28.96
2018-10-07T12:32:31.865Z,29.53
2018-10-07T12:34:59.171Z,29.87
2018-10-07T12:37:26.575Z,29.44
2018-10-07T12:39:53.871Z,29.44
2018-10-07T12:42:21.280Z,29.14
2018-10-07T12:44:48.644Z,28.90
2018-10-07T12:47:15.960Z,28.42
2018-10-07T12:49:43.310Z,28.38
2018-10-07T12:52:10.614Z,28.48
2018-10-07T12:54:37.970Z,28.65
2018-10-07T12:57:05.300Z,29.20
2018-10-07T12:59:32.660Z,29.39
2018-10-07T13:01:59.975Z,29.32
2018-10-07T13:04:27.247Z,29.39
2018-10-07T13:06:54.581Z,29.13
2018-10-07T13:09:21.871Z,29.56
2018-10-07T13:11:49.356Z,29.93
2018-10-07T13:14:16.643Z,30.21
2018-10-07T13:16:44.032Z,29.94
2018-10-07T13:19:11.383Z,29.42
2018-10-07T13:21:38.583Z,29.60
2018-10-07T13:24:05.870Z,29.43
2018-10-07T13:26:33.207Z,29.00
2018-10-07T13:29:00.866Z,29.06
2018-10-07T13:31:28.195Z,29.31
2018-10-07T13:33:55.445Z,29.54
2018-10-07T13:36:22.790Z,29.69
2018-10-07T13:38:50.112Z,29.75
2018-10-07T13:41:17.387Z,29.56
2018-10-07T13:43:44.658Z,29.30
2018-10-07T13:46:11.927Z,29.52
2018-10-07T13:48:39.246Z,28.98
2018-10-07T13:51:06.662Z,28.64
2018-10-07T13:53:34.212Z,28.52
2018-10-07T13:56:01.537Z,28.42
2018-10-07T13:58:28.807Z,28.65
2018-10-07T14:00:56.057Z,28.93
2018-10-07T14:03:23.342Z,28.66
2018-10-07T14:05:50.630Z,28.81
2018-10-07T14:08:17.896Z,28.81
2018-10-07T14:10:45.219Z,28.79
2018-10-07T14:13:12.513Z,28.41
2018-10-07T14:15:39.864Z,28.11
2018-10-07T14:18:07.147Z,27.90
2018-10-07T14:20:34.454Z,28.24
2018-10-07T14:23:01.777Z,28.65
2018-10-07T14:25:29.027Z,29.08
2018-10-07T14:27:56.411Z,29.16
2018-10-07T14:30:23.773Z,29.16
2018-10-07T14:32:51.090Z,29.37
2018-10-07T14:35:18.418Z,29.30
2018-10-07T14:37:45.749Z,29.15
2018-10-07T14:40:13.152Z,29.06
2018-10-07T14:42:40.511Z,28.73
2018-10-07T14:45:07.966Z,28.41
2018-10-07T14:47:35.268Z,28.42
2018-10-07T14:50:02.616Z,28.35
2018-10-07T14:52:29.896Z,28.70
2018-10-07T14:54:57.253Z,28.63
2018-10-07T14:57:24.668Z,28.77
2018-10-07T14:59:51.980Z,28.79
2018-10-07T15:02:19.359Z,28.38
2018-10-07T15:04:46.607Z,28.44
2018-10-07T15:07:13.911Z,28.12
2018-10-07T15:09:41.504Z,28.41
2018-10-07T15:12:08.843Z,28.52
2018-10-07T15:14:36.119Z,28.37
2018-10-07T15:17:03.509Z,28.34
2018-10-07T15:19:30.861Z,28.40
2018-10-07T15:21:58.179Z,28.70
2018-10-07T15:24:25.465Z,28.73
2018-10-07T15:26:52.826Z,28.67
2018-10-07T15:29:20.164Z,28.46
2018-10-07T15:31:47.471Z,28.27
2018-10-07T15:34:14.707Z,27.96
2018-10-07T15:36:41.973Z,27.90
2018-10-07T15:39:09.230Z,27.97
2018-10-07T15:41:36.497Z,27.59
2018-10-07T15:44:03.903Z,27.22
2018-10-07T15:46:31.250Z,26.88
2018-10-07T15:48:58.573Z,26.59
2018-10-07T15:51:25.900Z,26.22
2018-10-07T15:53:53.163Z,26.03
2018-10-07T15:56:20.494Z,25.86
2018-10-07T15:58:47.762Z,25.30
2018-10-07T16:01:15.094Z,25.43
2018-10-07T16:03:42.413Z,25.61
2018-10-07T16:06:09.711Z,25.47
2018-10-07T16:08:36.980Z,24.70
2018-10-07T16:11:04.644Z,24.31
2018-10-07T16:13:31.865Z,24.15
2018-10-07T16:15:59.117Z,23.98
2018-10-07T16:18:27.171Z,23.85
2018-10-07T16:20:54.504Z,23.67
2018-10-07T16:23:21.804Z,23.63
2018-10-07T16:25:49.197Z,23.59
2018-10-07T16:28:16.464Z,23.42
2018-10-07T16:30:44.072Z,23.33
2018-10-07T16:33:11.367Z,23.33
2018-10-07T16:35:38.622Z,22.93
2018-10-07T16:38:06.042Z,22.78
2018-10-07T16:40:33.330Z,22.59
2018-10-07T16:43:00.600Z,22.23
2018-10-07T16:45:27.847Z,22.14
2018-10-07T16:47:55.168Z,21.89
2018-10-07T16:50:22.480Z,21.67
2018-10-07T16:52:49.847Z,21.43
2018-10-07T16:55:17.026Z,21.30
2018-10-07T16:57:44.274Z,21.06
2018-10-07T17:00:11.590Z,20.83
2018-10-07T17:02:38.968Z,20.78
2018-10-07T17:05:11.967Z,20.55
2018-10-07T17:07:39.247Z,20.54
2018-10-07T17:10:06.766Z,20.58
2018-10-07T17:12:34.206Z,20.53
2018-10-07T17:15:01.504Z,20.42
2018-10-07T17:17:28.864Z,20.34
2018-10-07T17:19:56.120Z,20.25
2018-10-07T17:22:23.380Z,20.03
2018-10-07T17:24:50.650Z,19.90
2018-10-07T17:27:18.015Z,19.82
2018-10-07T17:29:45.336Z,19.59
2018-10-07T17:32:12.562Z,19.44
2018-10-07T17:34:39.894Z,19.29
2018-10-07T17:37:07.158Z,19.24
2018-10-07T17:39:34.672Z,19.07
2018-10-07T17:42:01.949Z,18.94
2018-10-07T17:44:29.236Z,18.76
2018-10-07T17:46:56.539Z,18.71
2018-10-07T17:49:23.794Z,18.56
2018-10-07T17:51:51.109Z,18.59
2018-10-07T17:54:18.397Z,18.53
2018-10-07T17:56:45.709Z,18.42
2018-10-07T17:59:12.979Z,18.42
2018-10-07T18:01:40.249Z,18.50
2018-10-07T18:04:07.560Z,18.39
2018-10-07T18:06:34.858Z,18.41
2018-10-07T18:09:02.249Z,18.26
2018-10-07T18:11:29.551Z,18.20
2018-10-07T18:13:56.872Z,18.18
2018-10-07T18:16:24.241Z,18.22
2018-10-07T18:18:51.536Z,18.15
2018-10-07T18:21:19.008Z,18.12
2018-10-07T18:23:46.212Z,17.93
2018-10-07T18:26:13.556Z,17.82
2018-10-07T18:28:40.800Z,17.76
2018-10-07T18:31:08.133Z,17.75
2018-10-07T18:33:35.369Z,17.68
2018-10-07T18:36:03.927Z,17.60
2018-10-07T18:38:31.236Z,17.42
2018-10-07T18:40:58.492Z,17.42
2018-10-07T18:43:57.318Z,17.36
2018-10-07T18:46:24.605Z,17.27
2018-10-07T18:48:52.062Z,17.21
2018-10-07T18:51:19.237Z,17.25
2018-10-07T18:53:46.656Z,17.23
2018-10-07T18:56:14.064Z,17.18
2018-10-07T18:58:41.366Z,16.69
2018-10-07T19:01:08.740Z,16.82
2018-10-07T19:03:36.018Z,16.95
2018-10-07T19:06:03.256Z,16.77
2018-10-07T19:08:30.598Z,16.61
2018-10-07T19:10:57.904Z,16.62
2018-10-07T19:13:25.268Z,16.48
2018-10-07T19:15:52.496Z,16.32
2018-10-07T19:18:19.801Z,16.30
2018-10-07T19:20:47.119Z,16.13
2018-10-07T19:23:14.316Z,16.11
2018-10-07T19:25:41.693Z,15.96
2018-10-07T19:28:09.015Z,15.99
2018-10-07T19:30:36.334Z,15.81
2018-10-07T19:33:03.599Z,15.83
2018-10-07T19:35:30.851Z,15.89
2018-10-07T19:37:58.108Z,15.76
2018-10-07T19:40:25.356Z,15.62
2018-10-07T19:42:52.674Z,15.52
2018-10-07T19:45:19.982Z,15.51
2018-10-07T19:47:47.229Z,15.51
2018-10-07T19:50:14.548Z,15.60
2018-10-07T19:52:41.894Z,15.55
2018-10-07T19:55:09.137Z,15.63
2018-10-07T19:57:38.001Z,15.76
2018-10-07T20:00:05.230Z,15.72
2018-10-07T20:02:32.567Z,15.81
2018-10-07T20:04:59.804Z,15.82
2018-10-07T20:07:27.157Z,15.73
2018-10-07T20:09:54.467Z,15.69
2018-10-07T20:12:21.809Z,15.71
2018-10-07T20:14:49.086Z,15.61
2018-10-07T20:17:16.299Z,15.47
2018-10-07T20:19:43.616Z,15.49
2018-10-07T20:22:13.380Z,15.52
2018-10-07T20:24:40.688Z,15.53
2018-10-07T20:27:08.041Z,15.62
2018-10-07T20:29:35.318Z,15.70
2018-10-07T20:32:02.658Z,15.66
2018-10-07T20:34:29.927Z,15.57
2018-10-07T20:36:57.245Z,15.58
2018-10-07T20:39:24.457Z,15.56
2018-10-07T20:41:51.741Z,15.45
2018-10-07T20:44:19.076Z,15.40
2018-10-07T20:46:46.430Z,15.36
2018-10-07T20:49:13.684Z,15.38
2018-10-07T20:51:40.948Z,15.43
2018-10-07T20:54:08.203Z,15.17
2018-10-07T20:56:35.479Z,15.04
2018-10-07T20:59:02.726Z,14.86
2018-10-07T21:01:30.064Z,14.78
2018-10-07T21:03:57.361Z,14.83
2018-10-07T21:06:24.590Z,14.72
2018-10-07T21:08:51.970Z,14.61
2018-10-07T21:11:19.209Z,14.64
2018-10-07T21:13:46.501Z,14.54
2018-10-07T21:16:13.809Z,14.56
2018-10-07T21:18:41.071Z,14.49
2018-10-07T21:21:08.355Z,14.43
2018-10-07T21:23:35.656Z,14.33
2018-10-07T21:26:02.944Z,14.37
2018-10-07T21:28:30.276Z,14.40
2018-10-07T21:30:57.589Z,14.52
2018-10-07T21:33:24.865Z,14.45
2018-10-07T21:35:52.169Z,14.32
2018-10-07T21:38:19.502Z,14.26
2018-10-07T21:40:46.775Z,14.22
2018-10-07T21:43:14.097Z,14.28
2018-10-07T21:45:41.343Z,14.33
2018-10-07T21:48:08.677Z,14.29
2018-10-07T21:50:35.935Z,14.17
2018-10-07T21:53:03.196Z,14.16
2018-10-07T21:55:30.538Z,14.24
2018-10-07T21:57:57.807Z,14.30
2018-10-07T22:00:25.119Z,14.30
2018-10-07T22:02:52.428Z,14.23
2018-10-07T22:05:19.688Z,14.21
2018-10-07T22:07:46.991Z,14.18
2018-10-07T22:10:14.194Z,14.16
2018-10-07T22:12:41.544Z,14.13
2018-10-07T22:15:08.849Z,14.19
2018-10-07T22:17:36.197Z,14.20
2018-10-07T22:20:03.624Z,14.10
2018-10-07T22:22:30.974Z,14.13
2018-10-07T22:24:58.272Z,14.17
2018-10-07T22:27:25.581Z,14.16
2018-10-07T22:29:52.910Z,14.14
2018-10-07T22:32:20.170Z,14.10
2018-10-07T22:34:47.527Z,14.12
2018-10-07T22:37:14.776Z,14.04
2018-10-07T22:39:42.028Z,14.00
2018-10-07T22:42:09.344Z,14.04
2018-10-07T22:44:36.623Z,13.92
2018-10-07T22:47:03.938Z,13.84
2018-10-07T22:49:31.172Z,13.66
2018-10-07T22:51:58.487Z,13.60
2018-10-07T22:54:25.721Z,13.66
2018-10-07T22:56:53.114Z,13.71
2018-10-07T22:59:20.289Z,13.71
2018-10-07T23:01:47.537Z,13.71
2018-10-07T23:05:44.256Z,13.72
2018-10-07T23:08:11.655Z,13.60
2018-10-07T23:10:38.988Z,13.59
2018-10-07T23:13:06.280Z,13.59
2018-10-07T23:15:33.525Z,13.57
2018-10-07T23:18:00.965Z,13.43
2018-10-07T23:20:28.339Z,13.45
2018-10-07T23:22:55.669Z,13.50
2018-10-07T23:25:22.922Z,13.55
2018-10-07T23:27:50.216Z,13.56
2018-10-07T23:30:17.514Z,13.63
2018-10-07T23:32:44.931Z,13.55
2018-10-07T23:35:12.152Z,13.49
2018-10-07T23:37:39.479Z,13.45
2018-10-07T23:40:07.338Z,13.43
2018-10-07T23:42:34.571Z,13.40
2018-10-07T23:45:01.925Z,13.33
2018-10-07T23:47:29.252Z,13.30
2018-10-07T23:49:56.610Z,13.25
2018-10-07T23:52:23.944Z,13.32
2018-10-07T23:54:51.200Z,13.23
2018-10-07T23:57:18.577Z,13.18
2018-10-07T23:59:45.846Z,13.18
